Time;durP1;ratioP1;P1;durP2;ratioP2;P2;SDS_P1;SDS_P2;PMS_P1;PMS_P2;Temp;Humidity;BMP_temperature;BMP_pressure;BME280_temperature;BME280_humidity;BME280_pressure;Samples;Min_cycle;Max_cycle;Signal;HPM_P1;HPM_P2
2022/04/06 00:02:08;;;;;;;1.88;1.30;;;13.50;68.10;;;;;;5053051;28;20052;-69
2022/04/06 00:04:34;;;;;;;1.30;1.20;;;13.60;67.90;;;;;;5053949;28;20501;-69
2022/04/06 00:07:01;;;;;;;1.88;1.30;;;13.90;68.40;;;;;;5053186;28;20067;-69
2022/04/06 00:09:28;;;;;;;1.55;1.10;;;;;;;;;;5054224;28;20053;-69
2022/04/06 00:11:55;;;;;;;1.27;1.13;;;13.60;68.30;;;;;;5053537;28;20057;-70
2022/04/06 00:14:22;;;;;;;1.20;1.10;;;;;;;;;;5043565;28;20091;-69
2022/04/06 00:16:49;;;;;;;1.52;1.20;;;13.50;68.10;;;;;;5052482;28;20053;-69
2022/04/06 00:19:17;;;;;;;1.70;1.30;;;13.50;68.20;;;;;;5054081;28;20059;-69
2022/04/06 00:21:45;;;;;;;1.30;1.20;;;13.50;68.10;;;;;;5053508;28;20053;-69
2022/04/06 00:24:12;;;;;;;1.67;1.27;;;13.60;67.90;;;;;;5053382;28;20581;-69
2022/04/06 00:26:39;;;;;;;3.00;1.50;;;;;;;;;;5045841;28;20056;-69
2022/04/06 00:29:05;;;;;;;1.50;1.30;;;13.60;67.90;;;;;;5033793;28;20391;-69
2022/04/06 00:31:32;;;;;;;1.77;1.17;;;13.70;67.90;;;;;;5032418;28;20049;-69
2022/04/06 00:33:59;;;;;;;1.50;1.25;;;13.70;67.20;;;;;;5032567;28;20045;-69
2022/04/06 00:36:27;;;;;;;1.30;1.20;;;13.70;67.90;;;;;;5033621;28;20053;-69
2022/04/06 00:38:53;;;;;;;2.40;1.35;;;13.80;67.90;;;;;;5032428;28;20059;-69
2022/04/06 00:41:21;;;;;;;2.65;1.33;;;13.60;67.80;;;;;;5047975;28;20693;-69
2022/04/06 00:44:15;;;;;;;2.58;1.40;;;13.70;67.90;;;;;;5053180;28;20048;-69
2022/04/06 00:46:43;;;;;;;2.28;1.48;;;13.30;67.80;;;;;;5053134;28;20048;-69
2022/04/06 00:49:11;;;;;;;1.63;1.30;;;13.60;68.10;;;;;;5053154;28;20051;-69
2022/04/06 00:51:40;;;;;;;1.63;1.40;;;13.50;67.70;;;;;;5051589;28;20083;-69
2022/04/06 00:54:07;;;;;;;1.83;1.40;;;13.50;62.00;;;;;;5043294;28;20525;-69
2022/04/06 00:56:34;;;;;;;1.52;1.30;;;13.80;67.80;;;;;;5033377;28;20124;-69
2022/04/06 00:59:00;;;;;;;2.08;1.30;;;13.70;68.10;;;;;;5032987;28;20406;-69
2022/04/06 01:01:27;;;;;;;1.77;1.25;;;;;;;;;;5033050;28;20059;-69
2022/04/06 01:03:54;;;;;;;1.92;1.35;;;13.70;67.80;;;;;;5033017;28;20049;-69
2022/04/06 01:06:21;;;;;;;1.75;1.30;;;13.70;67.80;;;;;;5032212;28;20057;-69
2022/04/06 01:08:49;;;;;;;1.60;1.20;;;13.70;66.70;;;;;;5048345;28;20041;-69
2022/04/06 01:11:16;;;;;;;2.55;1.40;;;13.50;67.80;;;;;;5032505;28;20052;-69
2022/04/06 01:13:43;;;;;;;1.50;1.25;;;13.60;67.60;;;;;;5032017;28;20049;-69
2022/04/06 01:16:10;;;;;;;2.42;1.40;;;;;;;;;;5032995;28;20052;-69
2022/04/06 01:18:37;;;;;;;1.60;1.20;;;13.30;67.50;;;;;;5032768;28;20049;-69
2022/04/06 01:21:04;;;;;;;2.78;1.40;;;13.60;61.80;;;;;;5039059;28;20061;-69
2022/04/06 01:23:32;;;;;;;2.35;1.50;;;13.50;67.50;;;;;;5050913;28;20390;-69
2022/04/06 01:25:58;;;;;;;1.90;1.35;;;13.60;67.60;;;;;;5051505;28;20049;-69
2022/04/06 01:28:26;;;;;;;3.03;1.30;;;13.70;67.70;;;;;;5051356;28;20063;-69
2022/04/06 01:30:52;;;;;;;1.50;1.35;;;13.60;67.50;;;;;;5051218;28;20057;-69
2022/04/06 01:33:19;;;;;;;2.03;1.10;;;13.40;67.50;;;;;;5051011;28;20055;-69
2022/04/06 01:35:47;;;;;;;2.42;1.40;;;;;;;;;;5033877;28;20063;-68
2022/04/06 01:38:14;;;;;;;1.88;1.20;;;13.70;61.30;;;;;;5031126;28;20100;-69
2022/04/06 01:40:42;;;;;;;1.85;1.42;;;13.70;67.50;;;;;;5031955;28;20045;-69
2022/04/06 01:43:09;;;;;;;1.85;1.40;;;13.70;67.50;;;;;;5050845;28;20378;-69
2022/04/06 01:45:35;;;;;;;1.85;1.38;;;13.30;67.30;;;;;;5052264;28;20049;-69
2022/04/06 01:48:02;;;;;;;2.55;1.52;;;;;;;;;;5044300;28;20045;-69
2022/04/06 01:53:13;;;;;;;1.95;1.25;;;13.60;67.80;;;;;;5031022;28;20053;-70
2022/04/06 01:55:41;;;;;;;1.77;1.10;;;13.90;67.80;;;;;;5031051;28;20059;-70
2022/04/06 01:58:08;;;;;;;1.20;1.10;;;13.80;67.40;;;;;;5031334;28;20144;-70
2022/04/06 02:00:35;;;;;;;2.50;1.58;;;;;;;;;;5030871;28;20136;-69
2022/04/06 02:03:02;;;;;;;1.63;1.25;;;13.80;67.40;;;;;;5049935;28;20045;-69
2022/04/06 02:05:32;;;;;;;1.80;1.40;;;13.90;60.20;;;;;;5051588;28;20041;-68
2022/04/06 02:07:59;;;;;;;2.10;1.30;;;;;;;;;;5051930;28;20057;-68
2022/04/06 02:10:26;;;;;;;1.70;1.30;;;13.80;67.10;;;;;;5051936;28;20058;-69
2022/04/06 02:12:55;;;;;;;3.88;1.40;;;13.70;67.30;;;;;;5050636;28;20091;-69
2022/04/06 02:15:22;;;;;;;1.90;1.20;;;13.90;67.30;;;;;;5041850;28;20055;-69
2022/04/06 02:17:49;;;;;;;1.25;1.15;;;;;;;;;;5030962;28;20079;-68
2022/04/06 02:20:16;;;;;;;1.40;1.30;;;14.00;67.20;;;;;;5031890;28;20490;-69
2022/04/06 02:22:43;;;;;;;1.90;1.23;;;13.80;66.70;;;;;;5031987;28;20055;-69
2022/04/06 02:25:12;;;;;;;2.67;1.30;;;14.00;61.20;;;;;;5031376;28;20045;-69
2022/04/06 02:27:44;;;;;;;3.08;1.20;;;13.80;66.80;;;;;;5030486;28;20057;-69
2022/04/06 02:30:13;;;;;;;2.47;1.27;;;13.90;59.40;;;;;;5050040;28;20053;-68
2022/04/06 02:32:41;;;;;;;1.38;1.08;;;13.90;66.40;;;;;;5050588;28;20402;-69
2022/04/06 02:35:08;;;;;;;2.55;1.38;;;14.00;62.30;;;;;;5051608;28;20056;-69
2022/04/06 02:37:35;;;;;;;1.30;1.10;;;14.00;66.30;;;;;;5050717;28;20437;-69
2022/04/06 02:40:02;;;;;;;1.45;1.15;;;14.10;66.50;;;;;;5051258;28;20041;-69
2022/04/06 02:42:28;;;;;;;1.67;1.33;;;14.00;66.00;;;;;;5042816;28;20494;-69
2022/04/06 02:44:55;;;;;;;2.17;1.40;;;14.00;66.00;;;;;;5031488;28;20139;-69
2022/04/06 02:47:23;;;;;;;1.65;1.10;;;14.10;61.10;;;;;;5031800;28;20051;-69
2022/04/06 02:49:50;;;;;;;2.05;1.20;;;;;;;;;;5032135;28;20063;-69
2022/04/06 02:52:17;;;;;;;1.85;1.23;;;14.10;65.80;;;;;;5034220;28;20064;-69
2022/04/06 02:54:44;;;;;;;1.90;1.20;;;13.90;66.00;;;;;;5035449;28;20053;-69
2022/04/06 02:57:10;;;;;;;1.40;1.23;;;14.10;64.30;;;;;;5052931;28;20055;-69
2022/04/06 02:59:39;;;;;;;1.77;1.15;;;14.00;65.90;;;;;;5055117;28;20048;-69
2022/04/06 03:02:06;;;;;;;1.77;1.10;;;14.10;65.70;;;;;;5054012;28;20497;-69
2022/04/06 03:04:34;;;;;;;1.30;1.10;;;14.10;60.70;;;;;;5054050;28;20053;-69
2022/04/06 03:07:00;;;;;;;1.52;1.20;;;13.90;63.30;;;;;;5055027;28;20053;-69
2022/04/06 03:09:27;;;;;;;1.67;1.23;;;14.10;65.60;;;;;;5046520;28;20049;-69
2022/04/06 03:11:54;;;;;;;1.10;1.00;;;14.10;65.80;;;;;;5034909;28;20048;-69
2022/04/06 03:14:21;;;;;;;1.52;1.10;;;14.00;65.80;;;;;;5034123;28;20060;-69
2022/04/06 03:16:47;;;;;;;1.40;1.10;;;14.80;65.80;;;;;;5033778;28;20514;-69
2022/04/06 03:19:14;;;;;;;1.38;1.15;;;14.40;65.50;;;;;;5033945;28;20053;-69
2022/04/06 03:21:42;;;;;;;1.05;1.02;;;14.00;58.90;;;;;;5034939;28;20046;-69
2022/04/06 03:24:09;;;;;;;1.73;1.25;;;;;;;;;;5041861;28;20045;-68
2022/04/06 03:26:36;;;;;;;2.13;1.20;;;14.10;65.50;;;;;;5034035;28;20053;-69
2022/04/06 03:29:02;;;;;;;2.00;1.00;;;14.10;65.50;;;;;;5033594;28;20059;-69
2022/04/06 03:31:29;;;;;;;1.88;1.08;;;14.10;60.30;;;;;;5033358;28;20087;-69
2022/04/06 03:33:56;;;;;;;1.52;1.20;;;14.00;65.20;;;;;;5034930;28;20045;-69
2022/04/06 03:36:22;;;;;;;1.15;1.00;;;14.20;65.40;;;;;;5038619;28;20049;-70
2022/04/06 03:38:50;;;;;;;1.60;1.08;;;14.10;58.90;;;;;;5054279;28;20069;-69
2022/04/06 03:41:17;;;;;;;1.30;1.02;;;;;;;;;;5054456;28;20053;-68
2022/04/06 03:43:44;;;;;;;2.00;1.20;;;14.30;65.30;;;;;;5054749;28;20049;-69
2022/04/06 03:46:11;;;;;;;1.27;1.10;;;14.60;65.20;;;;;;5054164;28;20053;-69
2022/04/06 03:48:38;;;;;;;1.60;1.10;;;;;;;;;;5054694;28;20075;-69
2022/04/06 03:51:04;;;;;;;1.27;1.10;;;14.00;65.10;;;;;;5037945;28;20061;-70
2022/04/06 03:53:32;;;;;;;1.55;1.17;;;14.20;65.20;;;;;;5033286;28;20084;-69
2022/04/06 03:56:00;;;;;;;1.15;1.05;;;14.10;64.80;;;;;;5033286;28;20488;-69
2022/04/06 03:58:28;;;;;;;1.85;1.20;;;14.30;64.90;;;;;;5034419;28;20059;-69
2022/04/06 04:00:55;;;;;;;2.70;1.40;;;14.20;65.00;;;;;;5033117;28;20057;-69
2022/04/06 04:03:22;;;;;;;1.42;1.10;;;14.30;63.60;;;;;;5038242;28;20128;-69
2022/04/06 04:05:49;;;;;;;2.03;1.10;;;14.80;65.00;;;;;;5054264;28;20056;-69
2022/04/06 04:08:15;;;;;;;1.35;1.17;;;14.20;65.00;;;;;;5053914;28;20508;-69
2022/04/06 04:10:42;;;;;;;1.70;1.02;;;;;;;;;;5054070;28;20049;-69
2022/04/06 04:13:11;;;;;;;1.45;1.10;;;13.90;64.80;;;;;;5053278;28;20482;-69
2022/04/06 04:15:38;;;;;;;1.67;1.10;;;14.30;64.80;;;;;;5053936;28;20057;-69
2022/04/06 04:18:05;;;;;;;1.83;1.10;;;14.20;62.70;;;;;;5038791;28;20505;-69
2022/04/06 04:20:31;;;;;;;1.63;1.08;;;14.30;65.00;;;;;;5033646;28;20487;-69
2022/04/06 04:22:58;;;;;;;1.15;1.00;;;;;;;;;;5033828;28;20087;-68
2022/04/06 04:25:25;;;;;;;2.15;1.15;;;14.20;64.50;;;;;;5032566;28;20387;-69
2022/04/06 04:27:52;;;;;;;2.13;1.10;;;;;;;;;;5032629;28;20053;-68
2022/04/06 04:30:21;;;;;;;1.63;1.02;;;14.20;64.70;;;;;;5035217;28;20049;-69
2022/04/06 04:32:48;;;;;;;1.75;1.00;;;;;;;;;;5053733;28;20490;-68
2022/04/06 04:35:15;;;;;;;1.73;1.13;;;14.20;64.60;;;;;;5053290;28;20071;-69
2022/04/06 04:37:42;;;;;;;1.60;1.20;;;14.30;64.50;;;;;;5053843;28;20405;-69
2022/04/06 04:40:10;;;;;;;2.30;1.33;;;14.30;57.50;;;;;;5051766;28;20057;-68
2022/04/06 04:42:36;;;;;;;3.13;1.17;;;13.70;64.20;;;;;;5053584;28;20052;-68
2022/04/06 04:45:04;;;;;;;2.05;1.25;;;14.30;64.40;;;;;;5039969;28;20056;-69
2022/04/06 04:47:32;;;;;;;1.58;1.10;;;14.20;64.20;;;;;;5033532;28;20550;-69
2022/04/06 04:49:59;;;;;;;3.30;1.10;;;14.30;63.10;;;;;;5031597;28;20136;-69
2022/04/06 04:52:26;;;;;;;1.33;1.05;;;14.30;64.30;;;;;;5032198;28;20096;-69
2022/04/06 04:54:52;;;;;;;1.55;1.10;;;14.30;64.60;;;;;;5032049;28;20391;-69
2022/04/06 04:57:19;;;;;;;1.75;1.10;;;14.30;64.60;;;;;;5032184;28;20159;-69
2022/04/06 04:59:46;;;;;;;1.52;1.17;;;14.00;64.10;;;;;;5034163;28;20046;-69
2022/04/06 05:02:13;;;;;;;1.45;1.20;;;14.30;64.30;;;;;;5051672;28;20059;-69
2022/04/06 05:04:41;;;;;;;1.15;1.00;;;14.40;64.30;;;;;;5052016;28;20049;-69
2022/04/06 05:07:08;;;;;;;1.45;1.10;;;14.40;64.50;;;;;;5051646;28;20055;-69
2022/04/06 05:09:34;;;;;;;1.60;0.98;;;14.30;64.40;;;;;;5051597;28;20059;-69
2022/04/06 05:12:01;;;;;;;2.38;1.10;;;14.10;64.10;;;;;;5051171;28;20056;-69
2022/04/06 05:14:28;;;;;;;1.77;1.25;;;14.40;61.90;;;;;;5051609;28;20478;-69
2022/04/06 05:16:54;;;;;;;1.25;1.02;;;14.60;64.50;;;;;;5037890;28;20527;-68
2022/04/06 05:19:21;;;;;;;2.63;1.20;;;14.30;64.40;;;;;;5032657;28;20042;-69
2022/04/06 05:21:49;;;;;;;1.27;1.17;;;14.40;58.70;;;;;;5031671;28;20498;-69
2022/04/06 05:24:16;;;;;;;1.27;1.10;;;;;;;;;;5032660;28;20068;-68
2022/04/06 05:26:43;;;;;;;1.63;1.10;;;14.60;64.30;;;;;;5031426;28;20505;-69
2022/04/06 05:29:09;;;;;;;1.95;1.10;;;14.40;64.40;;;;;;5031165;28;20059;-69
2022/04/06 05:31:37;;;;;;;2.38;1.20;;;14.10;61.40;;;;;;5032276;28;20061;-69
2022/04/06 05:34:03;;;;;;;1.55;1.00;;;14.30;64.10;;;;;;5031629;28;20061;-69
2022/04/06 05:36:30;;;;;;;1.88;1.17;;;14.40;64.40;;;;;;5031490;28;20053;-68
2022/04/06 05:38:58;;;;;;;1.95;1.02;;;14.30;64.20;;;;;;5031358;28;20059;-69
2022/04/06 05:41:25;;;;;;;1.63;1.10;;;14.40;64.20;;;;;;5032021;28;20045;-69
2022/04/06 05:43:52;;;;;;;1.67;1.10;;;14.30;63.90;;;;;;5031399;28;20528;-69
2022/04/06 05:46:18;;;;;;;1.58;1.15;;;14.40;59.50;;;;;;5032135;28;20061;-69
2022/04/06 05:48:45;;;;;;;1.15;0.90;;;14.40;64.10;;;;;;5032585;28;20052;-69
2022/04/06 05:51:12;;;;;;;1.10;1.00;;;14.50;63.90;;;;;;5031876;28;20049;-69
2022/04/06 05:53:39;;;;;;;1.27;1.10;;;;;;;;;;5030785;28;20429;-69
2022/04/06 05:56:07;;;;;;;1.45;1.08;;;14.40;63.90;;;;;;5031157;28;20045;-69
2022/04/06 05:58:34;;;;;;;1.45;1.10;;;14.40;64.10;;;;;;5031113;28;20055;-69
2022/04/06 06:01:01;;;;;;;1.98;1.00;;;;;;;;;;5030754;28;20049;-68
2022/04/06 06:03:27;;;;;;;1.90;1.02;;;14.40;64.00;;;;;;5031717;28;20051;-69
2022/04/06 06:05:54;;;;;;;1.40;1.00;;;14.20;63.70;;;;;;5049172;28;20059;-69
2022/04/06 06:08:21;;;;;;;1.92;1.00;;;14.40;63.60;;;;;;5051788;28;20465;-69
2022/04/06 06:10:48;;;;;;;1.90;1.10;;;14.50;63.80;;;;;;5050696;28;20065;-69
2022/04/06 06:13:16;;;;;;;2.00;1.30;;;14.40;63.90;;;;;;5040510;28;20643;-69
2022/04/06 06:15:43;;;;;;;1.90;1.00;;;14.00;63.40;;;;;;5030715;28;20045;-69
2022/04/06 06:18:09;;;;;;;1.13;0.95;;;14.40;61.00;;;;;;5031871;28;20045;-69
2022/04/06 06:20:36;;;;;;;1.45;1.02;;;14.50;63.70;;;;;;5032981;28;20049;-69
2022/04/06 06:23:03;;;;;;;1.40;1.10;;;14.40;63.70;;;;;;5031748;28;20055;-70
2022/04/06 06:25:30;;;;;;;2.88;1.10;;;;;;;;;;5033596;28;20049;-69
2022/04/06 06:27:57;;;;;;;2.22;1.55;;;14.40;63.90;;;;;;5034749;28;20488;-69
2022/04/06 06:30:27;;;;;;;1.08;0.90;;;14.50;56.60;;;;;;5034662;28;20068;-68
2022/04/06 06:32:54;;;;;;;0.88;0.85;;;;;;;;;;5034872;28;20056;-68
2022/04/06 06:35:21;;;;;;;2.22;1.08;;;14.40;63.60;;;;;;5035002;28;20075;-68
2022/04/06 06:37:47;;;;;;;2.08;1.17;;;14.50;63.90;;;;;;5051311;28;20063;-68
2022/04/06 06:40:14;;;;;;;1.38;0.90;;;14.50;63.50;;;;;;5055328;28;20053;-68
2022/04/06 06:42:41;;;;;;;1.55;1.00;;;14.50;63.80;;;;;;5055549;28;20045;-68
2022/04/06 06:45:08;;;;;;;1.25;1.00;;;;;;;;;;5054642;28;20053;-69
2022/04/06 06:47:37;;;;;;;1.33;1.00;;;14.00;63.30;;;;;;5054286;28;20052;-68
2022/04/06 06:50:04;;;;;;;1.10;1.00;;;;;;;;;;5055482;28;20053;-69
2022/04/06 06:52:34;;;;;;;1.70;1.10;;;14.50;64.00;;;;;;5046366;28;20405;-68
2022/04/06 06:55:00;;;;;;;1.33;1.02;;;14.50;63.30;;;;;;5034597;28;20140;-68
2022/04/06 06:57:27;;;;;;;1.90;1.10;;;14.50;63.90;;;;;;5034251;28;20063;-67
2022/04/06 06:59:55;;;;;;;2.40;1.10;;;;;;;;;;5035234;28;20054;-69
2022/04/06 07:02:21;;;;;;;1.50;1.00;;;14.60;63.50;;;;;;5042191;28;20438;-67
2022/04/06 07:04:49;;;;;;;1.35;0.90;;;14.50;63.40;;;;;;5034971;28;20175;-69
2022/04/06 07:07:16;;;;;;;1.85;1.10;;;14.60;63.40;;;;;;5035511;28;20064;-68
2022/04/06 07:09:43;;;;;;;1.05;0.90;;;14.90;59.80;;;;;;5035117;28;20059;-68
2022/04/06 07:12:10;;;;;;;2.40;1.10;;;14.50;63.40;;;;;;5053620;28;20405;-67
2022/04/06 07:14:37;;;;;;;1.27;1.10;;;14.50;63.20;;;;;;5055002;28;20406;-68
2022/04/06 07:17:04;;;;;;;1.35;0.90;;;14.60;63.30;;;;;;5053779;28;20052;-68
2022/04/06 07:19:31;;;;;;;7.97;1.08;;;;;;;;;;5053912;28;20053;-68
2022/04/06 07:21:59;;;;;;;1.65;0.90;;;14.30;63.20;;;;;;5053802;28;20055;-68
2022/04/06 07:24:26;;;;;;;2.00;0.90;;;14.60;63.20;;;;;;5046563;28;20610;-68
2022/04/06 07:26:52;;;;;;;1.83;0.95;;;15.30;63.40;;;;;;5040625;28;20048;-68
2022/04/06 07:29:19;;;;;;;3.05;1.00;;;14.80;61.00;;;;;;5033893;28;20140;-68
2022/04/06 07:31:46;;;;;;;1.65;1.10;;;14.70;63.20;;;;;;5033148;28;20053;-68
2022/04/06 07:34:12;;;;;;;1.05;0.80;;;14.80;62.90;;;;;;5035009;28;20049;-68
2022/04/06 07:36:39;;;;;;;2.30;1.02;;;14.80;57.00;;;;;;5033155;28;20045;-69
2022/04/06 07:39:07;;;;;;;1.00;0.90;;;14.50;62.70;;;;;;5033704;28;20059;-68
2022/04/06 07:41:34;;;;;;;3.00;1.30;;;14.50;62.90;;;;;;5034105;28;20059;-68
2022/04/06 07:44:01;;;;;;;1.55;0.95;;;14.90;63.00;;;;;;5035439;28;20045;-68
2022/04/06 07:46:28;;;;;;;3.58;1.20;;;14.40;62.60;;;;;;5051134;28;20045;-68
2022/04/06 07:48:55;;;;;;;2.47;1.00;;;14.90;62.70;;;;;;5054338;28;20048;-68
2022/04/06 07:51:22;;;;;;;1.30;0.90;;;14.70;56.60;;;;;;5053030;28;20049;-69
2022/04/06 07:53:49;;;;;;;1.35;0.90;;;14.70;62.60;;;;;;5042188;28;20071;-68
2022/04/06 07:56:17;;;;;;;1.10;0.90;;;15.00;62.60;;;;;;5053718;28;20049;-68
2022/04/06 07:58:43;;;;;;;2.42;0.90;;;14.20;62.20;;;;;;5054323;28;20561;-68
2022/04/06 08:01:10;;;;;;;1.65;1.10;;;15.10;62.40;;;;;;5046147;28;20060;-68
2022/04/06 08:03:37;;;;;;;0.93;0.80;;;14.90;62.80;;;;;;5043496;28;20107;-68
2022/04/06 08:06:04;;;;;;;1.00;0.80;;;15.00;55.60;;;;;;5043162;28;20060;-69
2022/04/06 08:08:31;;;;;;;1.33;0.95;;;14.90;62.70;;;;;;5042582;28;20052;-68
2022/04/06 08:10:58;;;;;;;3.10;1.00;;;15.20;62.90;;;;;;5044218;28;20148;-68
2022/04/06 08:13:26;;;;;;;1.45;0.82;;;14.80;62.20;;;;;;5044385;28;20723;-68
2022/04/06 08:15:53;;;;;;;1.80;1.00;;;15.20;62.50;;;;;;5045801;28;20049;-68
2022/04/06 08:18:21;;;;;;;1.95;1.00;;;14.70;62.40;;;;;;5044740;28;20041;-68
2022/04/06 08:20:48;;;;;;;1.88;0.90;;;15.20;62.50;;;;;;5044768;28;20056;-68
2022/04/06 08:23:22;;;;;;;1.92;0.98;;;15.30;62.40;;;;;;5045193;28;20120;-68
2022/04/06 08:26:24;;;;;;;1.40;1.00;;;15.10;62.70;;;;;;5033713;28;20180;-69
2022/04/06 08:29:11;;;;;;;1.67;1.00;;;15.30;62.60;;;;;;5043371;28;20057;-68
2022/04/06 08:31:37;;;;;;;1.70;0.93;;;15.20;62.70;;;;;;5041809;28;20047;-69
2022/04/06 08:34:14;;;;;;;2.40;1.00;;;15.20;62.30;;;;;;5041349;28;20051;-69
2022/04/06 08:36:45;;;;;;;1.70;0.90;;;;;;;;;;5042127;28;20060;-69
2022/04/06 08:39:15;;;;;;;1.02;0.90;;;15.30;62.70;;;;;;5041383;28;20061;-69
2022/04/06 08:41:42;;;;;;;2.25;1.00;;;15.30;62.40;;;;;;5040974;28;20049;-68
2022/04/06 08:44:09;;;;;;;1.83;0.90;;;14.80;62.10;;;;;;5041949;28;20057;-69
2022/04/06 08:46:38;;;;;;;1.10;1.00;;;15.30;57.00;;;;;;5041684;28;20544;-68
2022/04/06 08:49:05;;;;;;;4.05;0.90;;;15.40;62.40;;;;;;5044112;28;20076;-68
2022/04/06 08:51:34;;;;;;;1.45;0.85;;;15.40;59.60;;;;;;5042571;28;20053;-70
2022/04/06 08:54:00;;;;;;;1.52;1.00;;;16.00;62.90;;;;;;5041539;28;20064;-70
2022/04/06 08:56:28;;;;;;;1.23;0.90;;;;;;;;;;5043916;28;20657;-70
2022/04/06 08:58:54;;;;;;;1.42;1.00;;;16.10;62.60;;;;;;5042296;28;20049;-70
2022/04/06 09:01:21;;;;;;;2.00;0.98;;;14.90;61.90;;;;;;5042056;28;20091;-70
2022/04/06 09:03:50;;;;;;;1.77;0.90;;;15.50;61.30;;;;;;5042531;28;20135;-70
2022/04/06 09:06:18;;;;;;;1.73;0.73;;;15.40;62.50;;;;;;5041447;28;20495;-70
2022/04/06 09:08:47;;;;;;;1.48;0.90;;;15.40;62.50;;;;;;5042693;28;20063;-70
2022/04/06 09:11:15;;;;;;;2.45;1.02;;;15.40;55.40;;;;;;5038995;28;20044;-68
2022/04/06 09:13:43;;;;;;;1.63;1.00;;;15.50;62.20;;;;;;5039017;28;20050;-70
2022/04/06 09:16:10;;;;;;;2.35;1.05;;;;;;;;;;5031843;28;20053;-69
2022/04/06 09:18:38;;;;;;;2.03;1.00;;;16.20;62.60;;;;;;5031879;28;20053;-70
2022/04/06 09:21:06;;;;;;;1.13;1.00;;;14.90;62.30;;;;;;5033564;28;20131;-70
2022/04/06 09:23:33;;;;;;;1.88;1.10;;;15.50;62.20;;;;;;5052626;28;20067;-70
2022/04/06 09:26:04;;;;;;;2.13;1.20;;;15.50;62.60;;;;;;5052567;28;20127;-70
2022/04/06 09:28:31;;;;;;;1.83;1.02;;;16.30;57.80;;;;;;5040436;28;20080;-69
2022/04/06 09:30:57;;;;;;;1.65;0.95;;;15.60;62.50;;;;;;5052441;28;20409;-69
2022/04/06 09:33:24;;;;;;;3.25;1.00;;;15.60;62.60;;;;;;5051457;28;20065;-70
2022/04/06 09:35:51;;;;;;;2.50;1.00;;;15.60;59.90;;;;;;5052345;28;20045;-69
2022/04/06 09:38:22;;;;;;;2.13;0.90;;;15.60;62.40;;;;;;5043678;28;20053;-68
2022/04/06 09:40:49;;;;;;;2.40;1.00;;;15.00;59.20;;;;;;5042157;28;20057;-69
2022/04/06 09:43:26;;;;;;;2.35;1.10;;;15.80;62.80;;;;;;5039815;28;20053;-70
2022/04/06 09:48:53;;;;;;;2.17;1.43;;;15.90;62.70;;;;;;5039540;28;20049;-69
2022/04/06 09:51:21;;;;;;;2.25;1.17;;;16.60;62.90;;;;;;5043297;28;20314;-70
2022/04/06 09:53:49;;;;;;;1.42;1.10;;;15.70;62.30;;;;;;5041041;28;20045;-70
2022/04/06 09:56:17;;;;;;;1.67;1.00;;;14.80;62.10;;;;;;5044772;28;20070;-70
2022/04/06 09:58:44;;;;;;;1.60;1.05;;;15.10;55.60;;;;;;5039097;28;20059;-70
2022/04/06 10:01:12;;;;;;;3.75;1.20;;;14.90;61.90;;;;;;5038782;28;20060;-70
2022/04/06 10:03:39;;;;;;;1.70;1.00;;;15.50;62.20;;;;;;5039175;28;20052;-69
2022/04/06 10:06:06;;;;;;;1.75;0.90;;;15.10;60.10;;;;;;5040636;28;20510;-69
2022/04/06 10:08:35;;;;;;;2.10;1.13;;;15.90;62.60;;;;;;5033145;28;20045;-70
2022/04/06 10:11:04;;;;;;;2.78;1.20;;;16.00;62.40;;;;;;5031891;28;20492;-68
2022/04/06 10:13:31;;;;;;;1.88;1.13;;;;;;;;;;5051089;28;20136;-70
2022/04/06 10:15:58;;;;;;;1.98;1.02;;;16.10;62.70;;;;;;5043141;28;20405;-70
2022/04/06 10:18:25;;;;;;;2.30;1.20;;;15.90;62.30;;;;;;5041700;28;20059;-70
2022/04/06 10:20:54;;;;;;;3.17;1.00;;;16.30;58.00;;;;;;5042162;28;20047;-70
2022/04/06 10:23:27;;;;;;;2.72;1.10;;;16.50;62.90;;;;;;5039126;28;20056;-70
2022/04/06 10:25:59;;;;;;;1.70;1.20;;;16.80;62.90;;;;;;5034163;28;20558;-70
2022/04/06 10:28:27;;;;;;;2.58;0.90;;;16.00;62.60;;;;;;5031764;28;20050;-70
2022/04/06 10:31:17;;;;;;;1.63;1.00;;;15.00;56.00;;;;;;5034005;28;20051;-70
2022/04/06 10:33:44;;;;;;;2.45;1.20;;;16.60;62.70;;;;;;5046605;28;20128;-70
2022/04/06 10:36:17;;;;;;;1.45;0.82;;;15.00;60.20;;;;;;5047742;28;20047;-69
2022/04/06 10:39:11;;;;;;;2.47;1.27;;;16.30;62.80;;;;;;5041102;28;20061;-70
2022/04/06 10:41:39;;;;;;;1.58;0.90;;;15.50;62.10;;;;;;5039554;28;20137;-70
2022/04/06 10:44:08;;;;;;;2.05;1.00;;;15.70;62.30;;;;;;5035016;28;20056;-70
2022/04/06 10:46:38;;;;;;;2.00;0.98;;;15.70;62.50;;;;;;5038749;28;20509;-70
2022/04/06 10:49:15;;;;;;;2.90;1.20;;;15.60;55.80;;;;;;5039041;28;20391;-70
2022/04/06 10:51:42;;;;;;;2.72;1.00;;;15.80;62.40;;;;;;5033897;28;20058;-70
2022/04/06 10:54:40;;;;;;;4.07;1.13;;;15.00;57.10;;;;;;5032969;28;20069;-67
2022/04/06 10:57:07;;;;;;;2.30;1.30;;;15.60;62.60;;;;;;4965219;28;20046;-69
2022/04/06 10:59:35;;;;;;;2.15;1.05;;;15.40;62.70;;;;;;5031280;28;20060;-69
2022/04/06 11:02:21;;;;;;;1.52;1.00;;;15.80;62.70;;;;;;5048584;28;20486;-70
2022/04/06 11:04:50;;;;;;;2.55;1.10;;;14.60;62.10;;;;;;5043334;28;20057;-70
2022/04/06 11:10:06;;;;;;;2.88;1.20;;;14.50;62.20;;;;;;5041677;28;20049;-70
2022/04/06 11:10:12;;;;;;;2.58;1.20;;;15.70;57.80;;;;;;5048068;28;20052;-70
2022/04/06 11:12:39;;;;;;;12.27;1.45;;;;;;;;;;5052834;28;20124;-70
2022/04/06 11:15:20;;;;;;;2.58;1.13;;;15.60;62.80;;;;;;5043686;28;20422;-70
2022/04/06 11:17:48;;;;;;;2.30;1.00;;;15.00;62.50;;;;;;5048801;28;20044;-70
2022/04/06 11:20:15;;;;;;;2.50;1.17;;;15.00;62.70;;;;;;5050524;28;20053;-69
2022/04/06 11:22:43;;;;;;;2.78;1.17;;;15.70;63.10;;;;;;5052682;28;20056;-69
2022/04/06 11:25:11;;;;;;;1.73;1.05;;;15.40;63.00;;;;;;5041121;28;20053;-69
2022/04/06 11:27:38;;;;;;;1.67;1.10;;;15.70;63.20;;;;;;5034213;28;20041;-70
2022/04/06 11:30:06;;;;;;;1.85;1.10;;;15.50;63.00;;;;;;5044851;28;20055;-70
2022/04/06 11:32:34;;;;;;;4.05;1.23;;;15.30;62.80;;;;;;5052817;28;20063;-70
2022/04/06 11:35:01;;;;;;;2.13;1.20;;;14.90;62.90;;;;;;5037445;28;20486;-70
2022/04/06 11:37:28;;;;;;;2.03;1.10;;;15.00;58.60;;;;;;5034125;28;20128;-69
2022/04/06 11:39:59;;;;;;;2.00;1.20;;;15.00;63.00;;;;;;5052551;28;20053;-70
2022/04/06 11:42:25;;;;;;;2.60;1.30;;;15.40;63.20;;;;;;5053491;28;20063;-70
2022/04/06 11:44:52;;;;;;;1.63;1.13;;;15.40;60.40;;;;;;5049035;28;20048;-69
2022/04/06 11:47:29;;;;;;;1.73;1.10;;;15.30;62.90;;;;;;5043507;28;20058;-69
2022/04/06 11:49:57;;;;;;;1.73;1.10;;;15.20;56.30;;;;;;5050322;28;20052;-69
2022/04/06 11:52:24;;;;;;;2.65;1.10;;;15.50;56.60;;;;;;5052802;28;20547;-70
2022/04/06 11:54:52;;;;;;;2.22;1.13;;;15.40;63.30;;;;;;5054451;28;20045;-70
2022/04/06 11:57:19;;;;;;;2.70;1.15;;;15.30;62.80;;;;;;5046587;28;20060;-70
2022/04/06 11:59:53;;;;;;;3.42;1.10;;;15.10;63.20;;;;;;5042270;28;20045;-70
2022/04/06 12:02:20;;;;;;;1.15;1.05;;;15.30;63.10;;;;;;5052912;28;20066;-70
2022/04/06 12:04:48;;;;;;;2.50;1.17;;;;;;;;;;5053585;28;20391;-67
2022/04/06 12:07:20;;;;;;;3.72;1.13;;;14.90;62.90;;;;;;5054123;28;20079;-69
2022/04/06 12:09:47;;;;;;;1.80;1.00;;;15.20;58.20;;;;;;5052429;28;20402;-69
2022/04/06 12:12:14;;;;;;;2.20;1.20;;;14.60;62.80;;;;;;5038693;28;20128;-69
2022/04/06 12:14:42;;;;;;;1.85;1.10;;;15.20;63.40;;;;;;5037200;28;20041;-69
2022/04/06 12:17:09;;;;;;;1.50;0.98;;;15.30;63.10;;;;;;5040991;28;20474;-70
2022/04/06 12:19:35;;;;;;;2.83;1.20;;;14.60;62.90;;;;;;5032731;28;20107;-69
2022/04/06 12:22:06;;;;;;;2.08;1.02;;;15.20;63.40;;;;;;5051077;28;20102;-69
2022/04/06 12:24:38;;;;;;;1.90;1.10;;;15.10;56.50;;;;;;5053345;28;20041;-68
2022/04/06 12:27:05;;;;;;;2.03;1.30;;;;;;;;;;5053703;28;20128;-70
2022/04/06 12:29:35;;;;;;;1.95;1.00;;;15.00;63.30;;;;;;5051749;28;20063;-69
2022/04/06 12:32:02;;;;;;;1.92;1.33;;;14.90;63.10;;;;;;5052968;28;20107;-70
2022/04/06 12:34:33;;;;;;;2.08;1.10;;;15.10;63.10;;;;;;5046082;28;20124;-69
2022/04/06 12:37:00;;;;;;;1.33;1.00;;;15.10;58.90;;;;;;5037515;28;20049;-69
2022/04/06 12:39:26;;;;;;;3.40;1.10;;;15.10;63.30;;;;;;5036904;28;20053;-70
2022/04/06 12:41:58;;;;;;;1.88;1.02;;;15.00;63.30;;;;;;5048762;28;20051;-70
2022/04/06 12:44:25;;;;;;;1.70;0.88;;;15.10;63.00;;;;;;5052272;28;20050;-70
2022/04/06 12:46:52;;;;;;;2.80;1.05;;;15.10;63.10;;;;;;5032100;28;20509;-70
2022/04/06 12:49:27;;;;;;;3.20;1.30;;;15.10;63.10;;;;;;5036981;28;20056;-70
2022/04/06 12:52:04;;;;;;;2.53;0.93;;;15.00;63.10;;;;;;5034222;28;20103;-68
2022/04/06 12:54:31;;;;;;;1.35;0.98;;;14.70;63.10;;;;;;5032252;28;20054;-70
2022/04/06 12:57:07;;;;;;;1.90;1.13;;;15.00;56.30;;;;;;5038019;28;20387;-69
2022/04/06 12:59:41;;;;;;;2.22;1.15;;;15.10;63.10;;;;;;5051654;28;20059;-70
2022/04/06 13:02:21;;;;;;;1.73;1.10;;;15.00;63.30;;;;;;5044120;28;20509;-69
2022/04/06 13:04:48;;;;;;;1.75;1.00;;;;;;;;;;5032075;28;20057;-69
2022/04/06 13:07:15;;;;;;;2.00;1.00;;;15.10;63.00;;;;;;5052640;28;20049;-70
2022/04/06 13:09:50;;;;;;;1.55;0.90;;;15.10;56.30;;;;;;5042987;28;20053;-70